Time;durP1;ratioP1;P1;durP2;ratioP2;P2;SDS_P1;SDS_P2;PMS_P1;PMS_P2;Temp;Humidity;BMP_temperature;BMP_pressure;BME280_temperature;BME280_humidity;BME280_pressure;Samples;Min_cycle;Max_cycle;Signal;HPM_P1;HPM_P2
2021/07/24 00:00:36;;;;;;;17.30;10.20;;;15.50;99.90;;;;;;5131245;27;20047;-66
2021/07/24 00:03:02;;;;;;;14.25;10.73;;;15.50;99.90;;;;;;5138609;27;20054;-67
2021/07/24 00:05:28;;;;;;;19.23;9.93;;;15.50;99.90;;;;;;5132882;27;20043;-66
2021/07/24 00:07:53;;;;;;;21.55;11.38;;;15.60;99.90;;;;;;5125462;27;20035;-66
2021/07/24 00:10:19;;;;;;;24.63;11.25;;;15.50;99.90;;;;;;5132129;27;20044;-66
2021/07/24 00:12:45;;;;;;;15.20;10.80;;;15.50;99.90;;;;;;5142857;27;20039;-66
2021/07/24 00:15:12;;;;;;;18.17;11.85;;;15.50;99.90;;;;;;5127451;27;20044;-66
2021/07/24 00:17:37;;;;;;;19.07;11.63;;;15.40;99.90;;;;;;5131771;27;20053;-66
2021/07/24 00:20:04;;;;;;;18.13;12.10;;;15.50;99.90;;;;;;5140807;27;20381;-65
2021/07/24 00:22:29;;;;;;;18.00;11.98;;;15.50;99.90;;;;;;5112648;28;20063;-67
2021/07/24 00:24:55;;;;;;;20.33;12.20;;;15.40;99.90;;;;;;5139799;27;20096;-65
2021/07/24 00:27:21;;;;;;;22.85;14.30;;;15.40;99.90;;;;;;5126273;27;20069;-67
2021/07/24 00:29:47;;;;;;;27.30;13.60;;;15.40;99.90;;;;;;5124842;27;20043;-66
2021/07/24 00:32:12;;;;;;;18.73;14.25;;;15.40;99.90;;;;;;5144357;27;20114;-65
2021/07/24 00:34:38;;;;;;;22.67;14.50;;;15.40;99.90;;;;;;5132788;27;20099;-65
2021/07/24 00:37:05;;;;;;;17.83;12.27;;;15.30;99.90;;;;;;5128391;27;20138;-65
2021/07/24 00:39:30;;;;;;;23.75;14.20;;;15.30;99.90;;;;;;5136655;27;20073;-65
2021/07/24 00:42:26;;;;;;;22.85;15.52;;;15.30;99.90;;;;;;5129654;27;20043;-65
2021/07/24 00:44:53;;;;;;;19.65;13.68;;;15.30;99.90;;;;;;5125046;28;20044;-65
2021/07/24 00:47:23;;;;;;;24.98;15.68;;;15.30;99.90;;;;;;5138809;28;20043;-67
2021/07/24 00:49:49;;;;;;;22.50;16.02;;;15.30;99.90;;;;;;5144790;28;20047;-66
2021/07/24 00:52:16;;;;;;;21.05;14.60;;;15.30;99.90;;;;;;5131210;27;20055;-66
2021/07/24 00:54:42;;;;;;;23.08;14.18;;;15.30;99.90;;;;;;5137395;27;20043;-65
2021/07/24 00:57:08;;;;;;;21.95;15.57;;;15.30;99.90;;;;;;5144324;27;20063;-65
2021/07/24 00:59:37;;;;;;;23.30;14.02;;;15.20;99.90;;;;;;5147392;27;20040;-65
2021/07/24 01:02:03;;;;;;;27.73;16.67;;;15.10;99.90;;;;;;5141116;27;20058;-65
2021/07/24 01:04:29;;;;;;;25.48;15.02;;;15.10;99.90;;;;;;5148330;27;20049;-65
2021/07/24 01:06:56;;;;;;;22.42;15.82;;;15.10;99.90;;;;;;5131175;27;20048;-65
2021/07/24 01:09:26;;;;;;;28.98;16.70;;;15.00;99.90;;;;;;5145521;27;20091;-65
2021/07/24 01:11:52;;;;;;;28.33;16.13;;;15.00;99.90;;;;;;5137364;27;20078;-65
2021/07/24 01:14:18;;;;;;;26.75;16.15;;;15.00;99.90;;;;;;5135506;27;20039;-65
2021/07/24 01:16:45;;;;;;;27.45;15.82;;;14.90;99.90;;;;;;5130422;27;20039;-65
2021/07/24 01:19:12;;;;;;;27.75;16.85;;;14.90;99.90;;;;;;5150058;27;20138;-65
2021/07/24 01:21:37;;;;;;;33.35;17.10;;;14.90;99.90;;;;;;5136877;27;20065;-65
2021/07/24 01:24:04;;;;;;;27.83;17.58;;;14.80;99.90;;;;;;5135729;27;20043;-65
2021/07/24 01:26:34;;;;;;;30.88;18.63;;;;;;;;;;5133735;27;20122;-65
2021/07/24 01:29:01;;;;;;;28.90;17.67;;;14.70;99.90;;;;;;5146107;27;20414;-66
2021/07/24 01:31:27;;;;;;;26.45;18.02;;;14.70;99.90;;;;;;5149528;27;20050;-66
2021/07/24 01:33:53;;;;;;;28.45;18.98;;;14.70;99.90;;;;;;5138344;27;20070;-66
2021/07/24 01:36:19;;;;;;;33.22;18.42;;;14.60;99.90;;;;;;5141761;27;20042;-66
2021/07/24 01:38:45;;;;;;;35.30;20.17;;;14.70;99.90;;;;;;5140795;27;20047;-66
2021/07/24 01:41:13;;;;;;;28.27;17.13;;;14.60;99.90;;;;;;5130615;27;20118;-66
2021/07/24 01:43:39;;;;;;;27.40;17.38;;;14.60;99.90;;;;;;5139453;27;20043;-67
2021/07/24 01:46:06;;;;;;;33.17;19.02;;;14.50;99.90;;;;;;5139554;27;20050;-67
2021/07/24 01:48:43;;;;;;;33.20;20.03;;;14.50;99.90;;;;;;5142610;27;20491;-66
2021/07/24 01:53:56;;;;;;;31.10;18.92;;;14.40;99.90;;;;;;5140743;27;20569;-65
2021/07/24 01:56:28;;;;;;;31.35;19.38;;;14.30;99.90;;;;;;5133585;27;20055;-66
2021/07/24 01:58:54;;;;;;;33.60;19.27;;;14.30;99.90;;;;;;5141388;27;20077;-66
2021/07/24 02:01:22;;;;;;;36.70;20.88;;;14.30;99.90;;;;;;5134033;27;20468;-65
2021/07/24 02:04:01;;;;;;;28.77;19.65;;;14.20;99.90;;;;;;5126981;27;20043;-65
2021/07/24 02:06:27;;;;;;;35.78;20.88;;;13.30;99.90;;;;;;5134540;27;20051;-65
2021/07/24 02:08:53;;;;;;;36.20;20.17;;;14.20;99.90;;;;;;5137188;27;20039;-66
2021/07/24 02:11:21;;;;;;;36.42;21.02;;;14.10;99.90;;;;;;5136110;27;20065;-66
2021/07/24 02:13:49;;;;;;;30.20;19.33;;;14.10;99.90;;;;;;5127145;27;20043;-66
2021/07/24 02:16:15;;;;;;;29.13;18.40;;;14.10;99.90;;;;;;5126936;28;20039;-66
2021/07/24 02:18:41;;;;;;;35.75;19.35;;;14.10;99.90;;;;;;5132056;27;20040;-66
2021/07/24 02:21:08;;;;;;;32.80;18.50;;;14.00;99.90;;;;;;5133804;27;20039;-66
2021/07/24 02:23:34;;;;;;;37.97;18.73;;;14.00;99.90;;;;;;5134792;27;20475;-66
2021/07/24 02:26:00;;;;;;;31.83;18.65;;;13.90;99.90;;;;;;5140396;27;20042;-65
2021/07/24 02:28:26;;;;;;;29.83;18.10;;;;;;;;;;5133552;27;20058;-65
2021/07/24 02:30:52;;;;;;;32.20;17.38;;;;;;;;;;5141753;27;20089;-66
2021/07/24 02:33:19;;;;;;;32.85;18.17;;;;;;;;;;5139353;27;20035;-66
2021/07/24 02:35:45;;;;;;;32.83;18.27;;;;;;;;;;5126505;27;20039;-67
2021/07/24 02:38:11;;;;;;;30.95;17.95;;;;;;;;;;5135291;27;20044;-67
2021/07/24 02:40:40;;;;;;;34.97;18.13;;;;;;;;;;5130474;27;20486;-67
2021/07/24 02:43:06;;;;;;;28.60;17.27;;;;;;;;;;5136598;27;20036;-67
2021/07/24 02:45:32;;;;;;;35.88;17.23;;;13.70;99.90;;;;;;5126576;27;20051;-67
2021/07/24 02:47:57;;;;;;;35.55;18.70;;;13.80;99.90;;;;;;5128187;27;20086;-67
2021/07/24 02:50:23;;;;;;;37.85;19.25;;;13.80;99.90;;;;;;5132537;27;20339;-67
2021/07/24 02:52:49;;;;;;;34.00;18.52;;;13.80;99.90;;;;;;5127187;27;20040;-67
2021/07/24 02:55:16;;;;;;;41.33;18.58;;;13.70;99.90;;;;;;5133919;27;20063;-66
2021/07/24 02:57:42;;;;;;;31.60;18.48;;;13.50;99.90;;;;;;5146566;27;20143;-67
2021/07/24 03:00:08;;;;;;;34.30;17.98;;;13.70;99.90;;;;;;5137956;27;20043;-66
2021/07/24 03:02:34;;;;;;;32.90;17.85;;;13.70;99.90;;;;;;5126371;27;20048;-66
2021/07/24 03:04:59;;;;;;;27.55;16.98;;;13.70;99.90;;;;;;5135926;27;20605;-66
2021/07/24 03:07:25;;;;;;;29.33;16.98;;;13.60;99.90;;;;;;5142459;27;20039;-67
2021/07/24 03:09:51;;;;;;;32.45;16.45;;;13.70;99.90;;;;;;5133518;27;20054;-67
2021/07/24 03:12:17;;;;;;;36.15;18.05;;;13.80;99.90;;;;;;5143202;27;20043;-67
2021/07/24 03:14:44;;;;;;;30.27;17.30;;;13.70;99.90;;;;;;5134636;27;20039;-67
2021/07/24 03:17:10;;;;;;;34.03;17.80;;;13.80;99.90;;;;;;5131273;27;20078;-67
2021/07/24 03:19:36;;;;;;;34.78;17.95;;;13.60;99.90;;;;;;5129170;27;20085;-67
2021/07/24 03:22:02;;;;;;;28.58;16.20;;;13.70;99.90;;;;;;5130316;27;20047;-66
2021/07/24 03:24:28;;;;;;;31.65;19.02;;;13.70;99.90;;;;;;5138290;27;20511;-67
2021/07/24 03:26:54;;;;;;;33.58;16.73;;;13.90;99.90;;;;;;5131212;27;20043;-67
2021/07/24 03:29:20;;;;;;;32.65;17.58;;;13.80;99.90;;;;;;5127326;27;20048;-67
2021/07/24 03:31:46;;;;;;;35.67;18.05;;;13.70;99.90;;;;;;5138348;27;20118;-67
2021/07/24 03:34:12;;;;;;;35.38;17.55;;;13.80;99.90;;;;;;5135312;27;20084;-67
2021/07/24 03:36:37;;;;;;;37.40;18.50;;;13.80;99.90;;;;;;5125941;27;20067;-67
2021/07/24 03:39:04;;;;;;;31.05;18.25;;;13.80;99.90;;;;;;5131496;27;20047;-66
2021/07/24 03:41:33;;;;;;;35.40;18.70;;;13.80;99.90;;;;;;5143631;27;20134;-67
2021/07/24 03:43:59;;;;;;;31.15;17.40;;;13.80;99.90;;;;;;5136608;27;20044;-66
2021/07/24 03:46:26;;;;;;;33.70;18.17;;;13.80;99.90;;;;;;5133192;27;20046;-67
2021/07/24 03:48:52;;;;;;;37.50;17.88;;;13.90;99.90;;;;;;5135145;27;20047;-66
2021/07/24 03:51:18;;;;;;;32.13;17.75;;;13.80;99.90;;;;;;5132101;27;20509;-67
2021/07/24 03:53:44;;;;;;;28.50;17.15;;;13.60;99.90;;;;;;5131750;27;20048;-67
2021/07/24 03:56:18;;;;;;;25.85;15.68;;;13.90;99.90;;;;;;5130640;27;20051;-68
2021/07/24 03:58:45;;;;;;;28.95;18.00;;;13.70;99.90;;;;;;5138400;27;20047;-67
2021/07/24 04:01:11;;;;;;;29.00;16.92;;;14.00;99.90;;;;;;5144344;27;20050;-68
2021/07/24 04:03:37;;;;;;;28.70;15.77;;;13.80;99.90;;;;;;5139161;27;20102;-68
2021/07/24 04:06:04;;;;;;;31.52;17.30;;;13.80;99.90;;;;;;5131545;27;20119;-68
2021/07/24 04:08:31;;;;;;;30.35;16.00;;;14.00;99.90;;;;;;5141779;27;20103;-67
2021/07/24 04:10:58;;;;;;;29.63;15.10;;;13.90;99.90;;;;;;5126189;27;20094;-68
2021/07/24 04:13:24;;;;;;;27.88;14.70;;;13.90;99.90;;;;;;5127919;27;20402;-67
2021/07/24 04:15:50;;;;;;;29.13;16.90;;;13.90;99.90;;;;;;5142791;27;20047;-66
2021/07/24 04:18:16;;;;;;;28.50;17.05;;;13.90;99.90;;;;;;5125590;28;20043;-66
2021/07/24 04:20:42;;;;;;;28.38;16.98;;;14.10;99.90;;;;;;5125611;27;20050;-68
2021/07/24 04:23:08;;;;;;;31.50;18.00;;;13.90;99.90;;;;;;5112171;27;20050;-67
2021/07/24 04:25:34;;;;;;;30.83;16.95;;;14.00;99.90;;;;;;5124315;27;20102;-66
2021/07/24 04:28:00;;;;;;;26.08;14.77;;;14.00;99.90;;;;;;5128314;27;20062;-68
2021/07/24 04:30:26;;;;;;;26.23;16.10;;;14.00;99.90;;;;;;5129075;27;20039;-67
2021/07/24 04:32:53;;;;;;;29.10;16.90;;;13.90;99.90;;;;;;5139754;27;20051;-66
2021/07/24 04:35:19;;;;;;;31.65;15.90;;;14.00;99.90;;;;;;5141270;27;20043;-68
2021/07/24 04:37:44;;;;;;;27.75;15.73;;;14.10;99.90;;;;;;5127411;27;20043;-67
2021/07/24 04:40:11;;;;;;;30.45;15.38;;;14.00;99.90;;;;;;5124988;28;20039;-66
2021/07/24 04:42:37;;;;;;;28.02;14.55;;;14.20;99.90;;;;;;5141619;27;20043;-67
2021/07/24 04:45:05;;;;;;;25.33;15.13;;;14.30;99.90;;;;;;5141848;27;20054;-67
2021/07/24 04:47:36;;;;;;;25.33;15.48;;;14.20;99.90;;;;;;5127581;27;20039;-67
2021/07/24 04:50:02;;;;;;;22.13;14.23;;;14.40;99.90;;;;;;5128560;28;20411;-66
2021/07/24 04:52:29;;;;;;;22.48;15.23;;;14.40;99.90;;;;;;5124311;28;20103;-66
2021/07/24 04:54:58;;;;;;;21.20;13.25;;;14.50;99.90;;;;;;5129318;28;20043;-66
2021/07/24 04:57:24;;;;;;;23.65;14.10;;;14.50;99.90;;;;;;5124181;28;20277;-66
2021/07/24 04:59:51;;;;;;;21.15;13.15;;;14.80;99.90;;;;;;5129648;28;20067;-66
2021/07/24 05:02:19;;;;;;;21.88;13.27;;;14.70;99.90;;;;;;5123824;28;20487;-66
2021/07/24 05:04:46;;;;;;;17.52;12.73;;;14.90;99.90;;;;;;5131225;28;20039;-66
2021/07/24 05:07:12;;;;;;;19.48;11.88;;;14.90;99.90;;;;;;5124374;28;20243;-66
2021/07/24 05:09:39;;;;;;;19.63;12.10;;;15.00;99.90;;;;;;5131240;28;20586;-66
2021/07/24 05:12:05;;;;;;;19.13;11.85;;;15.00;99.90;;;;;;5124740;28;20039;-66
2021/07/24 05:14:31;;;;;;;13.60;8.75;;;15.10;99.90;;;;;;5127601;28;20039;-67
2021/07/24 05:17:13;;;;;;;17.05;11.60;;;15.30;99.90;;;;;;5143709;28;20051;-67
2021/07/24 05:19:41;;;;;;;25.27;12.57;;;15.10;99.90;;;;;;5135051;28;20044;-66
2021/07/24 05:22:07;;;;;;;14.98;10.80;;;15.50;99.90;;;;;;5125355;28;20110;-66
2021/07/24 05:24:38;;;;;;;21.20;11.50;;;15.50;99.90;;;;;;5131123;28;20051;-66
2021/07/24 05:27:04;;;;;;;20.88;11.75;;;15.40;99.90;;;;;;5142572;28;20055;-66
2021/07/24 05:29:30;;;;;;;15.73;9.80;;;15.50;99.90;;;;;;5133918;28;20039;-66
2021/07/24 05:31:56;;;;;;;16.60;9.85;;;15.70;99.90;;;;;;5133031;28;20066;-66
2021/07/24 05:34:22;;;;;;;23.58;10.73;;;15.50;99.90;;;;;;5125760;28;20051;-66
2021/07/24 05:36:49;;;;;;;19.85;11.25;;;15.70;99.90;;;;;;5129937;28;20043;-68
2021/07/24 05:39:19;;;;;;;17.42;10.25;;;15.70;99.90;;;;;;5135631;27;20039;-66
2021/07/24 05:41:45;;;;;;;14.88;10.60;;;15.80;99.90;;;;;;5140830;27;20046;-66
2021/07/24 05:44:13;;;;;;;11.57;7.10;;;15.80;99.90;;;;;;5141092;27;20044;-66
2021/07/24 05:46:39;;;;;;;;;;;15.60;99.90;;;;;;5116697;27;20517;-66
2021/07/24 05:49:05;;;;;;;17.73;10.23;;;16.00;99.90;;;;;;5132059;27;20010;-66
2021/07/24 05:51:32;;;;;;;16.50;9.43;;;15.90;99.90;;;;;;5133127;27;20043;-66
2021/07/24 05:53:58;;;;;;;13.48;9.45;;;16.10;99.90;;;;;;5142810;27;20057;-66
2021/07/24 05:56:24;;;;;;;18.42;11.60;;;16.20;99.90;;;;;;5127781;27;20040;-67
2021/07/24 05:58:49;;;;;;;16.95;10.40;;;16.30;99.90;;;;;;5138324;27;20067;-67
2021/07/24 06:01:15;;;;;;;15.60;8.60;;;16.30;99.90;;;;;;5144216;27;20093;-67
2021/07/24 06:03:41;;;;;;;14.38;9.75;;;16.20;99.90;;;;;;5132051;27;20562;-67
2021/07/24 06:06:08;;;;;;;12.50;9.00;;;16.50;99.90;;;;;;5130872;27;20146;-66
2021/07/24 06:08:36;;;;;;;12.82;9.68;;;16.60;99.90;;;;;;5138533;27;20059;-67
2021/07/24 06:11:03;;;;;;;14.05;8.38;;;16.80;99.90;;;;;;5131512;27;20069;-66
2021/07/24 06:13:30;;;;;;;12.18;9.73;;;16.80;99.90;;;;;;5147587;27;20065;-66
2021/07/24 06:15:56;;;;;;;15.63;7.68;;;16.90;99.90;;;;;;5131782;27;20049;-66
2021/07/24 06:18:22;;;;;;;14.30;9.70;;;17.00;99.90;;;;;;5140614;27;20044;-66
2021/07/24 06:20:48;;;;;;;12.45;8.80;;;17.00;99.90;;;;;;5140670;27;20466;-66
2021/07/24 06:23:17;;;;;;;14.57;8.88;;;;;;;;;;5128598;27;20573;-66
2021/07/24 06:25:44;;;;;;;10.65;8.45;;;;;;;;;;5127059;27;20052;-66
2021/07/24 06:28:11;;;;;;;12.10;8.73;;;17.40;99.90;;;;;;5141477;27;20065;-66
2021/07/24 06:30:37;;;;;;;12.57;8.32;;;17.60;99.90;;;;;;5134499;27;20054;-66
2021/07/24 06:33:03;;;;;;;9.68;8.02;;;;;;;;;;5126662;27;20048;-66
2021/07/24 06:35:30;;;;;;;14.48;8.75;;;;;;;;;;5132205;27;20070;-65
2021/07/24 06:37:56;;;;;;;11.93;6.30;;;;;;;;;;5130893;27;20128;-66
2021/07/24 06:40:23;;;;;;;14.82;8.15;;;;;;;;;;5139926;27;20047;-66
2021/07/24 06:42:49;;;;;;;10.35;8.05;;;;;;;;;;5133431;27;20067;-66
2021/07/24 06:45:16;;;;;;;10.65;7.72;;;;;;;;;;5140148;27;20047;-66
2021/07/24 06:47:42;;;;;;;12.00;7.57;;;;;;;;;;5134130;27;20050;-66
2021/07/24 06:50:09;;;;;;;10.27;6.40;;;;;;;;;;5139467;27;20573;-66
2021/07/24 06:52:35;;;;;;;13.70;8.32;;;;;;;;;;5127854;27;20040;-65
2021/07/24 06:55:01;;;;;;;13.02;7.80;;;;;;;;;;5127659;27;20039;-66
2021/07/24 06:57:27;;;;;;;11.20;7.85;;;;;;;;;;5137391;27;20055;-65
2021/07/24 06:59:54;;;;;;;13.77;8.23;;;;;;;;;;5145089;27;20051;-65
2021/07/24 07:02:20;;;;;;;10.07;7.30;;;;;;;;;;5136868;27;20047;-66
2021/07/24 07:04:46;;;;;;;10.90;7.88;;;;;;;;;;5140244;27;20050;-65
2021/07/24 07:07:12;;;;;;;10.55;7.55;;;;;;;;;;5136842;27;20096;-65
2021/07/24 07:09:38;;;;;;;16.35;8.05;;;;;;;;;;5136831;27;20051;-66
2021/07/24 07:12:05;;;;;;;10.70;7.63;;;;;;;;;;5134025;27;20043;-66
2021/07/24 07:14:31;;;;;;;13.07;8.30;;;;;;;;;;5133118;27;20043;-66
2021/07/24 07:16:57;;;;;;;8.45;5.43;;;;;;;;;;5131803;27;20043;-66
2021/07/24 07:19:23;;;;;;;11.90;7.38;;;;;;;;;;5135516;27;20042;-65
2021/07/24 07:21:50;;;;;;;9.30;7.03;;;;;;;;;;5130718;27;20045;-64
2021/07/24 07:24:16;;;;;;;13.27;7.47;;;;;;;;;;5133273;27;20635;-64
2021/07/24 07:26:42;;;;;;;9.48;7.63;;;;;;;;;;5125889;28;20139;-64
2021/07/24 07:29:09;;;;;;;8.77;6.10;;;;;;;;;;5134059;27;20043;-64
2021/07/24 07:31:36;;;;;;;12.33;6.73;;;;;;;;;;5139444;27;20040;-65
2021/07/24 07:34:03;;;;;;;11.10;6.50;;;;;;;;;;5127400;27;20040;-65
2021/07/24 07:36:29;;;;;;;14.75;6.40;;;;;;;;;;5136082;27;20170;-64
2021/07/24 07:38:55;;;;;;;10.55;7.03;;;;;;;;;;5142855;27;20450;-64
2021/07/24 07:41:21;;;;;;;10.32;7.30;;;;;;;;;;5134823;27;20039;-64
2021/07/24 07:43:48;;;;;;;10.55;7.72;;;;;;;;;;5141646;27;20039;-63
2021/07/24 07:46:16;;;;;;;9.52;6.55;;;;;;;;;;5124629;28;20494;-64
2021/07/24 07:48:42;;;;;;;14.20;8.00;;;;;;;;;;5140410;27;20069;-64
2021/07/24 07:51:09;;;;;;;9.63;7.38;;;;;;;;;;5138377;27;20040;-64
2021/07/24 07:53:35;;;;;;;8.77;6.72;;;;;;;;;;5131682;27;20047;-64
2021/07/24 07:56:01;;;;;;;11.73;7.03;;;;;;;;;;5130566;27;20043;-64
2021/07/24 07:58:28;;;;;;;12.32;8.18;;;;;;;;;;5138481;27;20058;-65
2021/07/24 08:00:54;;;;;;;11.07;7.32;;;;;;;;;;5141140;27;20078;-64
2021/07/24 08:03:24;;;;;;;14.60;8.77;;;;;;;;;;5134750;27;20039;-64
2021/07/24 08:05:53;;;;;;;7.43;5.53;;;;;;;;;;5129113;27;20063;-66
2021/07/24 08:08:20;;;;;;;12.68;7.28;;;;;;;;;;5125182;27;20039;-65
2021/07/24 08:10:46;;;;;;;11.20;6.60;;;;;;;;;;5126538;27;20495;-65
2021/07/24 08:13:17;;;;;;;10.07;6.47;;;;;;;;;;5134535;27;20305;-65
2021/07/24 08:15:44;;;;;;;11.68;5.20;;;;;;;;;;5126748;27;20048;-65
2021/07/24 08:18:10;;;;;;;11.73;7.15;;;;;;;;;;5135003;27;20051;-65
2021/07/24 08:20:40;;;;;;;12.13;7.35;;;;;;;;;;5127844;27;20047;-65
2021/07/24 08:23:06;;;;;;;9.25;7.30;;;;;;;;;;5135668;27;20115;-65
2021/07/24 08:25:33;;;;;;;10.17;6.83;;;;;;;;;;5138775;27;20051;-65
2021/07/24 08:28:02;;;;;;;10.65;7.00;;;;;;;;;;5140754;27;20043;-66
2021/07/24 08:30:29;;;;;;;14.90;8.50;;;;;;;;;;5124239;28;20077;-66
2021/07/24 08:32:55;;;;;;;11.63;7.32;;;;;;;;;;5124577;27;20047;-66
2021/07/24 08:35:21;;;;;;;11.15;7.53;;;;;;;;;;5128947;27;20050;-65
2021/07/24 08:37:47;;;;;;;11.00;8.13;;;;;;;;;;5132808;27;20084;-65
2021/07/24 08:40:14;;;;;;;9.25;7.63;;;;;;;;;;5134766;27;20046;-65
2021/07/24 08:42:41;;;;;;;13.63;7.93;;;;;;;;;;5127892;28;20039;-64
2021/07/24 08:45:08;;;;;;;12.13;7.45;;;;;;;;;;5134323;27;20510;-64
2021/07/24 08:47:35;;;;;;;13.38;6.82;;;;;;;;;;5134266;27;20047;-65
2021/07/24 08:50:01;;;;;;;10.50;6.57;;;;;;;;;;5124560;28;20443;-65
2021/07/24 08:52:28;;;;;;;9.83;6.80;;;;;;;;;;5132904;28;20047;-68
2021/07/24 08:54:55;;;;;;;8.50;4.70;;;;;;;;;;5121217;28;20324;-64
2021/07/24 08:57:28;;;;;;;10.77;5.90;;;;;;;;;;5132434;28;20126;-65
2021/07/24 08:59:59;;;;;;;9.98;6.03;;;;;;;;;;5125616;28;20043;-65
2021/07/24 09:02:27;;;;;;;13.02;5.10;;;;;;;;;;5133011;28;20048;-64
2021/07/24 09:04:55;;;;;;;6.85;5.53;;;;;;;;;;5130735;28;20040;-64
2021/07/24 09:07:22;;;;;;;5.95;4.57;;;;;;;;;;5124150;28;20044;-64
2021/07/24 09:09:49;;;;;;;12.07;5.35;;;;;;;;;;5124774;28;20051;-64
2021/07/24 09:12:16;;;;;;;9.52;5.75;;;;;;;;;;5133253;27;20058;-64
2021/07/24 09:14:42;;;;;;;12.30;6.75;;;;;;;;;;5146718;27;20039;-64
2021/07/24 09:17:13;;;;;;;9.63;5.85;;;;;;;;;;5144271;27;20119;-64
2021/07/24 09:19:40;;;;;;;11.48;6.07;;;;;;;;;;5144996;27;20049;-64
2021/07/24 09:22:24;;;;;;;11.32;5.35;;;;;;;;;;5144665;27;20047;-64
2021/07/24 09:25:06;;;;;;;8.95;6.30;;;;;;;;;;5144440;27;20043;-65
2021/07/24 09:27:32;;;;;;;9.45;6.38;;;;;;;;;;5140268;27;20134;-65
2021/07/24 09:30:00;;;;;;;10.95;6.20;;;;;;;;;;5127899;27;20050;-64
2021/07/24 09:32:27;;;;;;;9.15;6.32;;;;;;;;;;5134891;27;20046;-64
2021/07/24 09:34:52;;;;;;;9.15;6.30;;;23.40;99.90;;;;;;5131891;27;20039;-65
2021/07/24 09:37:29;;;;;;;11.90;7.10;;;23.40;99.90;;;;;;5146363;27;20039;-65
2021/07/24 09:40:22;;;;;;;8.98;6.03;;;23.40;99.90;;;;;;5136468;27;20150;-65
2021/07/24 09:42:48;;;;;;;14.30;7.05;;;23.50;99.90;;;;;;5121097;27;20079;-65
2021/07/24 09:45:14;;;;;;;11.18;7.10;;;23.60;99.90;;;;;;5136957;27;20039;-65
2021/07/24 09:47:40;;;;;;;10.93;5.88;;;23.80;99.90;;;;;;5127766;27;20050;-65
2021/07/24 09:50:14;;;;;;;9.07;6.45;;;23.90;99.90;;;;;;5135391;27;20031;-65
2021/07/24 09:52:50;;;;;;;12.43;6.18;;;23.40;99.90;;;;;;5136477;27;20103;-66
2021/07/24 09:55:23;;;;;;;7.70;6.03;;;23.60;99.90;;;;;;5139141;27;20091;-65
2021/07/24 09:57:56;;;;;;;8.95;6.43;;;23.60;99.90;;;;;;5133096;27;20074;-66
2021/07/24 10:00:35;;;;;;;9.25;6.45;;;23.80;99.90;;;;;;5137820;27;20070;-65
2021/07/24 10:03:01;;;;;;;;;;;23.70;99.90;;;;;;5127958;27;20127;-66
2021/07/24 10:05:38;;;;;;;10.63;7.28;;;23.60;99.90;;;;;;5130265;27;19931;-66
2021/07/24 10:08:09;;;;;;;9.73;6.78;;;23.70;99.90;;;;;;5142654;27;20039;-65
2021/07/24 10:10:38;;;;;;;9.32;6.80;;;23.80;99.90;;;;;;5136349;27;20063;-65
2021/07/24 10:13:08;;;;;;;17.63;6.53;;;24.10;99.90;;;;;;5141289;27;20043;-65
2021/07/24 10:15:42;;;;;;;9.10;6.65;;;24.20;99.90;;;;;;5136509;27;20054;-65
2021/07/24 10:18:10;;;;;;;9.13;7.03;;;24.10;99.90;;;;;;5134975;27;20044;-65
2021/07/24 10:20:44;;;;;;;9.07;7.07;;;23.80;99.90;;;;;;5137994;27;20116;-66
2021/07/24 10:23:11;;;;;;;10.45;7.32;;;23.80;99.90;;;;;;5135477;27;20043;-67
2021/07/24 10:26:00;;;;;;;9.10;6.97;;;24.00;99.90;;;;;;5137453;27;20031;-65
2021/07/24 10:28:31;;;;;;;;;;;24.10;99.90;;;;;;5126210;27;20047;-65
2021/07/24 10:31:03;;;;;;;12.23;7.38;;;24.00;99.90;;;;;;5145937;27;19919;-65
2021/07/24 10:33:30;;;;;;;10.00;7.07;;;24.20;99.90;;;;;;5132763;27;20054;-65
2021/07/24 10:36:11;;;;;;;10.77;6.18;;;24.00;99.90;;;;;;5126841;27;20044;-65
2021/07/24 10:38:37;;;;;;;11.82;7.60;;;24.00;99.90;;;;;;5140157;27;20070;-65
2021/07/24 10:41:21;;;;;;;12.32;5.65;;;24.00;99.90;;;;;;5133437;27;20043;-65
2021/07/24 10:44:00;;;;;;;9.40;6.20;;;23.90;99.90;;;;;;5129386;27;20164;-65
2021/07/24 10:47:01;;;;;;;7.78;5.47;;;23.70;99.90;;;;;;5139440;27;20043;-65
2021/07/24 10:49:33;;;;;;;10.13;6.97;;;23.90;99.90;;;;;;5062704;28;20064;-65
2021/07/24 10:52:01;;;;;;;8.52;6.22;;;23.90;99.90;;;;;;5062745;28;20061;-65
2021/07/24 10:54:31;;;;;;;11.57;7.40;;;24.20;99.90;;;;;;5062883;28;20049;-65
2021/07/24 10:56:58;;;;;;;10.18;7.72;;;24.20;99.90;;;;;;5062809;28;20049;-65
2021/07/24 10:59:30;;;;;;;8.80;6.47;;;24.30;99.90;;;;;;5062555;28;20048;-65
2021/07/24 11:02:00;;;;;;;13.15;7.43;;;24.70;99.90;;;;;;5053751;28;20091;-65
2021/07/24 11:04:35;;;;;;;12.90;8.80;;;24.70;99.90;;;;;;5062823;28;20049;-65
2021/07/24 11:07:13;;;;;;;10.93;6.60;;;24.50;99.90;;;;;;5062245;28;20514;-65
2021/07/24 11:09:39;;;;;;;;;;;24.40;99.90;;;;;;5062995;28;20048;-65
2021/07/24 11:12:12;;;;;;;10.60;7.10;;;24.90;99.90;;;;;;5062318;28;20018;-65
2021/07/24 11:14:37;;;;;;;10.30;7.22;;;25.30;99.90;;;;;;5062470;28;20057;-65
2021/07/24 11:17:06;;;;;;;9.63;7.03;;;25.10;99.90;;;;;;5061804;28;20091;-64
2021/07/24 11:19:37;;;;;;;10.38;7.60;;;24.70;99.90;;;;;;5062221;28;20053;-64
2021/07/24 11:22:15;;;;;;;11.00;8.35;;;24.90;99.90;;;;;;5051387;28;20105;-65
2021/07/24 11:25:01;;;;;;;10.75;7.45;;;25.20;99.90;;;;;;5077280;28;20059;-65
2021/07/24 11:27:30;;;;;;;9.07;7.15;;;25.60;99.90;;;;;;5102110;28;20108;-65
2021/07/24 11:30:21;;;;;;;12.02;7.70;;;25.50;99.30;;;;;;5090028;28;20046;-65
2021/07/24 11:32:55;;;;;;;11.20;7.22;;;25.40;99.70;;;;;;5097687;28;20060;-65
2021/07/24 11:35:27;;;;;;;11.98;6.75;;;25.80;99.90;;;;;;5090130;28;20036;-66
2021/07/24 11:37:53;;;;;;;9.20;6.20;;;26.00;98.40;;;;;;5098764;28;20044;-65
2021/07/24 11:40:30;;;;;;;11.57;6.72;;;25.50;99.30;;;;;;5098055;28;20040;-66
2021/07/24 11:42:58;;;;;;;14.23;8.40;;;25.90;99.10;;;;;;5092228;28;20126;-65
2021/07/24 11:45:24;;;;;;;9.85;6.43;;;25.70;99.00;;;;;;5097730;28;20040;-65
2021/07/24 11:48:11;;;;;;;15.70;7.72;;;25.90;98.80;;;;;;5090957;28;20078;-64
2021/07/24 11:50:40;;;;;;;9.43;6.85;;;26.30;98.70;;;;;;5094345;28;20052;-65
2021/07/24 11:53:06;;;;;;;12.45;6.25;;;26.20;98.30;;;;;;5085405;28;20109;-66
2021/07/24 11:55:36;;;;;;;11.60;7.00;;;26.90;97.70;;;;;;5097971;28;20120;-65
2021/07/24 11:58:14;;;;;;;7.95;6.53;;;26.20;97.10;;;;;;5113681;27;20308;-65
2021/07/24 12:00:46;;;;;;;11.32;6.55;;;26.20;97.70;;;;;;5130767;27;20039;-65
2021/07/24 12:03:17;;;;;;;11.55;6.32;;;26.10;97.00;;;;;;5144947;27;20065;-64
2021/07/24 12:05:44;;;;;;;12.00;7.05;;;26.20;97.60;;;;;;5136660;27;20036;-65
2021/07/24 12:08:11;;;;;;;7.30;6.05;;;26.20;97.20;;;;;;5136938;27;20376;-64
2021/07/24 12:10:42;;;;;;;8.98;6.38;;;26.20;97.00;;;;;;5133106;27;20054;-65
2021/07/24 12:13:11;;;;;;;10.73;5.95;;;25.90;96.70;;;;;;5127332;27;20038;-65
2021/07/24 12:16:03;;;;;;;9.05;5.95;;;26.40;98.10;;;;;;5132103;27;20501;-65
2021/07/24 12:18:39;;;;;;;9.52;6.88;;;26.80;96.00;;;;;;5141057;27;20047;-64
2021/07/24 12:21:09;;;;;;;7.45;5.47;;;26.60;96.10;;;;;;5133115;27;20069;-65
2021/07/24 12:23:36;;;;;;;8.65;6.15;;;27.00;95.90;;;;;;5124876;27;20103;-66
2021/07/24 12:26:06;;;;;;;9.15;6.38;;;26.50;97.20;;;;;;5128151;27;20050;-65
2021/07/24 12:28:32;;;;;;;8.70;5.90;;;26.80;96.30;;;;;;5131755;27;20051;-65
2021/07/24 12:31:21;;;;;;;8.10;5.47;;;27.40;95.80;;;;;;5132158;27;20107;-65
2021/07/24 12:33:50;;;;;;;7.43;5.78;;;26.80;96.30;;;;;;5114672;27;20061;-65
2021/07/24 12:36:17;;;;;;;14.07;6.90;;;27.00;95.10;;;;;;5142796;27;20048;-65
2021/07/24 12:38:43;;;;;;;8.82;5.90;;;26.70;95.90;;;;;;5132866;27;20059;-65
2021/07/24 12:41:09;;;;;;;8.13;5.50;;;26.70;96.70;;;;;;5132516;27;20115;-65
2021/07/24 12:43:41;;;;;;;8.67;6.03;;;26.50;97.60;;;;;;5135269;27;20051;-65
2021/07/24 12:46:17;;;;;;;9.50;6.28;;;26.70;96.10;;;;;;5127245;28;20095;-65
2021/07/24 12:48:45;;;;;;;10.07;5.88;;;26.40;96.50;;;;;;5124428;28;20060;-65
2021/07/24 12:51:17;;;;;;;8.43;4.95;;;26.50;96.60;;;;;;5124284;28;20050;-65
2021/07/24 12:53:50;;;;;;;11.02;6.43;;;27.00;95.20;;;;;;5136310;28;20045;-66
2021/07/24 12:56:20;;;;;;;7.47;5.97;;;27.30;95.00;;;;;;5132989;28;20047;-64
2021/07/24 12:58:46;;;;;;;8.13;6.07;;;27.10;95.90;;;;;;5126084;28;20139;-65
2021/07/24 13:01:15;;;;;;;6.18;5.50;;;26.80;95.60;;;;;;5129842;28;20556;-64
2021/07/24 13:03:42;;;;;;;7.57;5.93;;;26.50;95.10;;;;;;5134008;28;20051;-65
2021/07/24 13:06:10;;;;;;;7.65;5.55;;;26.50;96.30;;;;;;5135952;28;20039;-65
2021/07/24 13:08:35;;;;;;;8.35;5.68;;;26.50;95.70;;;;;;5135164;28;20052;-66
2021/07/24 13:11:01;;;;;;;11.15;6.32;;;26.90;96.10;;;;;;5124014;28;20062;-66